createdAt,value
2019-06-10T00:04:35.712Z,6.30
2019-06-10T00:09:38.021Z,5.57
2019-06-10T00:14:41.683Z,2.87
2019-06-10T00:19:43.078Z,2.77
2019-06-10T00:24:44.559Z,6.53
2019-06-10T00:29:46.130Z,4.80
2019-06-10T00:34:47.554Z,3.30
2019-06-10T00:39:51.170Z,4.20
2019-06-10T00:44:52.444Z,6.43
2019-06-10T00:49:53.964Z,4.50
2019-06-10T00:54:55.633Z,3.30
2019-06-10T00:59:57.120Z,2.87
2019-06-10T01:05:00.851Z,4.43
2019-06-10T01:10:08.958Z,4.43
2019-06-10T01:15:12.549Z,5.90
2019-06-10T01:20:16.095Z,5.87
2019-06-10T01:25:17.855Z,3.53
2019-06-10T01:30:24.555Z,3.63
2019-06-10T01:35:23.001Z,6.17
2019-06-10T01:40:24.491Z,7.13
2019-06-10T01:45:26.073Z,4.37
2019-06-10T01:50:27.565Z,3.40
2019-06-10T01:55:31.026Z,6.73
2019-06-10T02:00:37.868Z,4.57
2019-06-10T02:05:41.900Z,7.67
2019-06-10T02:10:42.946Z,3.93
2019-06-10T02:15:44.579Z,7.33
2019-06-10T02:20:46.257Z,8.83
2019-06-10T02:25:47.943Z,4.97
2019-06-10T02:30:54.356Z,5.70
2019-06-10T02:35:53.849Z,6.90
2019-06-10T02:40:55.829Z,4.70
2019-06-10T02:45:57.300Z,4.67
2019-06-10T02:51:05.495Z,6.27
2019-06-10T02:56:07.438Z,6.33
2019-06-10T03:01:09.112Z,6.80
2019-06-10T03:06:14.456Z,6.73
2019-06-10T03:11:16.582Z,7.07
2019-06-10T03:16:25.752Z,4.17
2019-06-10T03:21:28.434Z,7.20
2019-06-10T03:26:32.295Z,6.13
2019-06-10T03:31:41.482Z,5.77
2019-06-10T03:36:37.076Z,7.33
2019-06-10T03:41:38.580Z,4.97
2019-06-10T03:46:40.237Z,5.00
2019-06-10T03:51:42.832Z,7.07
2019-06-10T03:56:44.573Z,4.53
2019-06-10T04:01:46.151Z,6.57
2019-06-10T04:06:47.667Z,6.17
2019-06-10T04:11:49.157Z,9.97
2019-06-10T04:16:52.502Z,6.60
2019-06-10T04:21:54.196Z,7.60
2019-06-10T04:26:56.031Z,6.97
2019-06-10T04:31:57.915Z,5.97
2019-06-10T04:36:59.409Z,8.73
2019-06-10T04:42:02.418Z,6.97
2019-06-10T04:47:04.280Z,4.37
2019-06-10T04:52:05.959Z,5.57
2019-06-10T04:57:07.470Z,6.00
2019-06-10T05:02:09.267Z,8.57
2019-06-10T05:07:12.557Z,11.07
2019-06-10T05:12:14.201Z,5.67
2019-06-10T05:17:15.677Z,8.50
2019-06-10T05:22:17.599Z,5.50
2019-06-10T05:27:20.420Z,10.67
2019-06-10T05:32:23.199Z,7.17
2019-06-10T05:37:26.698Z,6.10
2019-06-10T05:42:30.694Z,6.23
2019-06-10T05:47:35.916Z,5.57
2019-06-10T05:52:36.519Z,5.93
2019-06-10T05:57:38.037Z,6.30
2019-06-10T06:02:39.776Z,4.00
2019-06-10T06:07:42.349Z,5.03
2019-06-10T06:12:44.121Z,5.57
2019-06-10T06:17:45.689Z,5.00
2019-06-10T06:22:47.183Z,4.17
2019-06-10T06:27:48.676Z,4.97
2019-06-10T06:32:50.291Z,6.97
2019-06-10T06:37:54.072Z,5.20
2019-06-10T06:42:55.648Z,7.10
2019-06-10T06:47:57.258Z,3.80
2019-06-10T06:53:20.064Z,5.83
2019-06-10T06:58:03.363Z,5.87
2019-06-10T07:03:05.251Z,6.27
2019-06-10T07:08:06.953Z,5.47
2019-06-10T07:13:08.531Z,5.03
2019-06-10T07:18:13.040Z,9.43
2019-06-10T07:23:14.492Z,4.40
2019-06-10T07:28:16.674Z,9.37
2019-06-10T07:33:18.231Z,7.30
2019-06-10T07:38:22.365Z,4.10
2019-06-10T07:43:23.651Z,4.47
2019-06-10T07:48:25.269Z,5.97
2019-06-10T07:53:27.030Z,7.63
2019-06-10T07:58:28.537Z,4.53
2019-06-10T08:03:33.382Z,8.20
2019-06-10T08:08:34.836Z,8.90
2019-06-10T08:13:37.241Z,8.43
2019-06-10T08:18:50.996Z,6.70
2019-06-10T08:23:45.663Z,8.57
2019-06-10T08:28:47.928Z,6.43
2019-06-10T08:33:49.737Z,7.93
2019-06-10T08:38:52.829Z,8.30
2019-06-10T08:43:54.693Z,8.07
2019-06-10T08:48:56.528Z,5.70
2019-06-10T08:53:58.021Z,9.60
2019-06-10T08:58:59.460Z,6.93
2019-06-10T09:04:03.150Z,5.23
2019-06-10T09:09:06.366Z,5.70
2019-06-10T09:14:07.852Z,7.83
2019-06-10T09:19:09.955Z,10.30
2019-06-10T09:24:12.906Z,8.83
2019-06-10T09:29:15.049Z,8.50
2019-06-10T09:34:16.899Z,5.80
2019-06-10T09:39:18.525Z,7.80
2019-06-10T09:44:22.743Z,7.50
2019-06-10T09:49:25.659Z,7.20
2019-06-10T09:54:27.648Z,7.27
2019-06-10T09:59:29.330Z,9.87
2019-06-10T10:04:32.714Z,7.77
2019-06-10T10:09:37.077Z,11.67
2019-06-10T10:14:39.060Z,11.50
2019-06-10T10:19:45.348Z,6.87
2019-06-10T10:24:45.864Z,9.43
2019-06-10T10:29:50.302Z,9.77
2019-06-10T10:34:52.523Z,7.33
2019-06-10T10:39:56.633Z,9.60
2019-06-10T10:44:59.268Z,11.33
2019-06-10T10:50:02.855Z,7.17
2019-06-10T10:55:07.019Z,9.27
2019-06-10T11:00:12.543Z,8.33
2019-06-10T11:05:34.767Z,11.27
2019-06-10T11:10:36.682Z,9.10
2019-06-10T11:15:38.476Z,7.60
2019-06-10T11:20:40.412Z,7.90
2019-06-10T11:25:43.161Z,8.97
2019-06-10T11:30:45.287Z,8.50
2019-06-10T11:35:46.987Z,10.07
2019-06-10T11:40:49.841Z,8.13
2019-06-10T11:45:58.943Z,9.43
2019-06-10T11:50:58.426Z,13.90
2019-06-10T11:55:58.415Z,9.87
2019-06-10T12:01:01.390Z,9.83
2019-06-10T12:06:05.286Z,8.43
2019-06-10T12:11:07.228Z,8.07
2019-06-10T12:21:13.193Z,10.17
2019-06-10T12:26:15.063Z,8.67
2019-06-10T12:31:16.560Z,12.40
2019-06-10T12:36:18.145Z,10.17
2019-06-10T12:41:19.631Z,9.50
2019-06-10T12:46:23.183Z,11.47
2019-06-10T12:51:24.592Z,12.63
2019-06-10T12:56:26.063Z,9.57
2019-06-10T13:01:27.644Z,8.20
2019-06-10T13:06:32.426Z,9.03
2019-06-10T13:11:34.043Z,10.03
2019-06-10T13:16:35.535Z,10.73
2019-06-10T13:21:37.109Z,8.73
2019-06-10T13:26:38.583Z,11.27
2019-06-10T13:31:40.275Z,7.87
2019-06-10T13:36:42.339Z,11.30
2019-06-10T13:41:44.151Z,13.00
2019-06-10T13:46:46.006Z,11.80
2019-06-10T13:51:47.501Z,10.23
2019-06-10T13:56:49.463Z,10.53
2019-06-10T14:01:53.159Z,10.53
2019-06-10T14:06:57.221Z,10.65
2019-06-10T14:11:57.956Z,17.02
2019-06-10T14:16:59.440Z,11.22
2019-06-10T14:22:03.542Z,9.40
2019-06-10T14:27:08.251Z,9.68
2019-06-10T14:32:07.880Z,9.55
2019-06-10T14:37:12.828Z,13.43
2019-06-10T14:42:15.041Z,8.70
2019-06-10T14:47:17.339Z,12.25
2019-06-10T14:52:19.188Z,9.85
2019-06-10T14:57:22.674Z,11.63
2019-06-10T15:02:24.067Z,8.65
2019-06-10T15:07:25.555Z,13.68
2019-06-10T15:12:27.122Z,10.08
2019-06-10T15:17:28.625Z,8.23
2019-06-10T15:22:32.884Z,10.13
2019-06-10T15:27:34.151Z,8.20
2019-06-10T15:32:35.637Z,8.28
2019-06-10T15:37:37.326Z,8.60
2019-06-10T15:42:38.809Z,11.20
2019-06-10T15:47:42.586Z,10.25
2019-06-10T15:52:43.898Z,8.48
2019-06-10T15:57:46.531Z,8.68
2019-06-10T16:02:48.179Z,9.13
2019-06-10T16:07:49.992Z,9.78
2019-06-10T16:12:52.784Z,10.68
2019-06-10T16:17:54.548Z,10.08
2019-06-10T16:22:56.858Z,14.05
2019-06-10T16:27:58.356Z,9.95
2019-06-10T16:32:59.845Z,10.93
2019-06-10T16:38:01.461Z,12.82
2019-06-10T16:43:03.365Z,11.68
2019-06-10T16:48:05.250Z,14.03
2019-06-10T16:53:07.128Z,8.00
2019-06-10T16:58:08.738Z,8.53
2019-06-10T17:03:12.677Z,12.00
2019-06-10T17:08:14.011Z,8.75
2019-06-10T17:13:17.476Z,15.30
2019-06-10T17:18:18.961Z,8.00
2019-06-10T17:23:24.697Z,8.83
2019-06-10T17:28:30.712Z,8.73
2019-06-10T17:33:30.353Z,15.97
2019-06-10T17:38:32.821Z,8.08
2019-06-10T17:43:34.652Z,11.38
2019-06-10T17:48:36.638Z,11.18
2019-06-10T17:53:38.167Z,10.72
2019-06-10T17:58:53.446Z,12.37
2019-06-10T18:03:43.748Z,9.50
2019-06-10T18:08:45.530Z,13.80
2019-06-10T18:13:47.337Z,17.80
2019-06-10T18:18:48.937Z,9.80
2019-06-10T18:23:52.788Z,11.83
2019-06-10T18:29:02.053Z,11.70
2019-06-10T18:33:57.702Z,13.33
2019-06-10T18:38:59.108Z,12.13
2019-06-10T18:44:02.310Z,17.13
2019-06-10T18:49:04.200Z,13.87
2019-06-10T18:54:05.797Z,12.63
2019-06-10T18:59:16.711Z,17.43
2019-06-10T19:04:12.849Z,12.23
2019-06-10T19:09:14.146Z,14.00
2019-06-10T19:14:15.756Z,15.93
2019-06-10T19:19:17.343Z,12.57
2019-06-10T19:24:18.986Z,13.90
2019-06-10T19:29:30.775Z,14.17
2019-06-10T19:34:23.890Z,13.40
2019-06-10T19:39:25.481Z,14.60
2019-06-10T19:44:26.977Z,14.40
2019-06-10T19:49:28.447Z,14.53
2019-06-10T19:54:32.279Z,13.27
2019-06-10T19:59:51.253Z,12.77
2019-06-10T20:04:37.789Z,15.50
2019-06-10T20:09:42.890Z,13.20
2019-06-10T20:14:43.665Z,12.67
2019-06-10T20:19:46.665Z,18.40
2019-06-10T20:24:48.891Z,15.47
2019-06-10T20:30:04.628Z,18.27
2019-06-10T20:34:54.081Z,14.73
2019-06-10T20:39:55.653Z,15.97
2019-06-10T20:44:57.553Z,16.00
2019-06-10T20:49:59.120Z,18.87
2019-06-10T20:55:02.935Z,16.10
2019-06-10T21:00:19.652Z,17.17
2019-06-10T21:05:13.375Z,17.57
2019-06-10T21:10:22.232Z,21.53
2019-06-10T21:15:24.070Z,17.17
2019-06-10T21:20:25.692Z,17.47
2019-06-10T21:25:27.544Z,20.47
2019-06-10T21:30:40.689Z,15.87
2019-06-10T21:35:35.261Z,17.10
2019-06-10T21:40:36.754Z,22.17
2019-06-10T21:45:38.326Z,18.90
2019-06-10T21:50:39.910Z,16.63
2019-06-10T21:55:42.437Z,20.47
2019-06-10T22:01:03.418Z,19.03
2019-06-10T22:05:53.809Z,16.83
2019-06-10T22:10:56.629Z,19.20
2019-06-10T22:15:58.305Z,15.97
2019-06-10T22:21:02.558Z,17.63
